createdAt,value
2023-04-15T00:00:41.243Z,69.31
2023-04-15T00:03:08.664Z,69.05
2023-04-15T00:05:35.558Z,68.81
2023-04-15T00:08:02.238Z,69.30
2023-04-15T00:10:29.160Z,69.17
2023-04-15T00:12:55.944Z,69.23
2023-04-15T00:15:22.628Z,69.80
2023-04-15T00:17:52.165Z,69.55
2023-04-15T00:20:18.973Z,69.62
2023-04-15T00:22:46.644Z,69.52
2023-04-15T00:25:13.445Z,70.12
2023-04-15T00:27:40.774Z,70.01
2023-04-15T00:30:08.008Z,69.68
2023-04-15T00:32:35.076Z,69.66
2023-04-15T00:35:02.469Z,70.01
2023-04-15T00:37:29.368Z,69.88
2023-04-15T00:39:56.714Z,69.97
2023-04-15T00:42:23.994Z,70.21
2023-04-15T00:44:50.715Z,69.91
2023-04-15T00:47:18.617Z,69.85
2023-04-15T00:49:45.898Z,69.86
2023-04-15T00:52:13.415Z,70.11
2023-04-15T00:54:40.232Z,70.21
2023-04-15T00:57:07.340Z,70.07
2023-04-15T00:59:34.305Z,69.87
2023-04-15T01:02:01.718Z,70.01
2023-04-15T01:04:29.244Z,69.89
2023-04-15T01:06:56.247Z,70.46
2023-04-15T01:09:23.069Z,70.58
2023-04-15T01:11:51.231Z,70.83
2023-04-15T01:14:17.998Z,70.81
2023-04-15T01:16:45.541Z,70.57
2023-04-15T01:19:13.758Z,70.66
2023-04-15T01:21:41.167Z,70.57
2023-04-15T01:24:13.341Z,70.66
2023-04-15T01:26:41.029Z,70.85
2023-04-15T01:29:08.658Z,71.27
2023-04-15T01:31:35.730Z,70.51
2023-04-15T01:34:02.508Z,70.80
2023-04-15T01:36:30.035Z,70.56
2023-04-15T01:38:57.444Z,70.95
2023-04-15T01:41:28.228Z,71.38
2023-04-15T01:43:55.312Z,70.85
2023-04-15T01:46:22.213Z,70.76
2023-04-15T01:48:48.967Z,70.47
2023-04-15T01:51:15.697Z,70.63
2023-04-15T01:53:42.740Z,70.93
2023-04-15T01:56:09.513Z,71.01
2023-04-15T01:58:36.292Z,71.25
2023-04-15T02:01:04.125Z,71.54
2023-04-15T02:03:32.030Z,71.60
2023-04-15T02:05:58.831Z,71.24
2023-04-15T02:08:25.658Z,71.32
2023-04-15T02:10:52.944Z,71.48
2023-04-15T02:13:20.121Z,71.55
2023-04-15T02:15:50.879Z,71.73
2023-04-15T02:18:19.509Z,71.72
2023-04-15T02:20:47.216Z,71.59
2023-04-15T02:23:14.118Z,71.62
2023-04-15T02:25:53.486Z,71.87
2023-04-15T02:28:21.373Z,71.24
2023-04-15T02:30:53.581Z,71.83
2023-04-15T02:33:21.542Z,71.89
2023-04-15T02:35:48.310Z,72.04
2023-04-15T02:38:16.999Z,72.24
2023-04-15T02:40:43.924Z,72.15
2023-04-15T02:43:10.838Z,71.44
2023-04-15T02:45:37.608Z,71.67
2023-04-15T02:48:06.713Z,71.97
2023-04-15T02:50:33.703Z,72.63
2023-04-15T02:53:01.883Z,72.86
2023-04-15T02:55:29.568Z,72.80
2023-04-15T02:57:57.397Z,72.41
2023-04-15T03:00:25.542Z,72.49
2023-04-15T03:02:56.868Z,72.45
2023-04-15T03:05:26.594Z,72.42
2023-04-15T03:07:53.733Z,72.40
2023-04-15T03:10:21.992Z,72.32
2023-04-15T03:12:49.041Z,72.17
2023-04-15T03:15:18.608Z,72.37
2023-04-15T03:17:49.852Z,72.52
2023-04-15T03:20:17.165Z,72.22
2023-04-15T03:22:44.108Z,71.90
2023-04-15T03:25:11.145Z,71.92
2023-04-15T03:27:38.798Z,72.20
2023-04-15T03:30:06.888Z,72.28
2023-04-15T03:32:36.625Z,72.23
2023-04-15T03:35:03.378Z,72.22
2023-04-15T03:37:30.071Z,71.95
2023-04-15T03:39:56.831Z,72.19
2023-04-15T03:42:23.584Z,72.01
2023-04-15T03:44:50.253Z,72.05
2023-04-15T03:47:16.922Z,72.55
2023-04-15T03:49:43.638Z,72.28
2023-04-15T03:52:10.329Z,72.45
2023-04-15T03:54:37.024Z,72.44
2023-04-15T03:57:03.757Z,72.61
2023-04-15T03:59:30.683Z,72.28
2023-04-15T04:01:57.596Z,72.45
2023-04-15T04:04:24.523Z,72.46
2023-04-15T04:06:51.275Z,72.60
2023-04-15T04:09:17.999Z,72.31
2023-04-15T04:11:45.792Z,72.65
2023-04-15T04:14:12.542Z,72.75
2023-04-15T04:16:39.390Z,72.46
2023-04-15T04:19:06.499Z,72.66
2023-04-15T04:21:34.373Z,72.42
2023-04-15T04:24:01.226Z,72.49
2023-04-15T04:26:28.004Z,72.91
2023-04-15T04:28:54.722Z,72.61
2023-04-15T04:31:21.453Z,72.72
2023-04-15T04:33:48.154Z,72.48
2023-04-15T04:36:14.868Z,72.48
2023-04-15T04:38:41.723Z,72.51
2023-04-15T04:41:08.418Z,72.54
2023-04-15T04:43:35.140Z,72.83
2023-04-15T04:46:02.017Z,73.01
2023-04-15T04:48:28.716Z,73.34
2023-04-15T04:50:55.887Z,73.17
2023-04-15T04:53:22.594Z,73.22
2023-04-15T04:55:49.261Z,73.22
2023-04-15T04:58:15.984Z,73.31
2023-04-15T05:00:43.543Z,73.33
2023-04-15T05:03:10.561Z,73.33
2023-04-15T05:05:39.635Z,73.10
2023-04-15T05:08:06.621Z,73.69
2023-04-15T05:10:33.316Z,73.99
2023-04-15T05:13:00.041Z,73.91
2023-04-15T05:15:26.777Z,73.88
2023-04-15T05:17:53.545Z,73.69
2023-04-15T05:20:20.313Z,73.45
2023-04-15T05:22:47.063Z,73.84
2023-04-15T05:25:14.121Z,73.21
2023-04-15T05:27:41.087Z,73.42
2023-04-15T05:30:09.056Z,73.40
2023-04-15T05:32:35.880Z,73.48
2023-04-15T05:35:02.600Z,73.59
2023-04-15T05:37:29.428Z,73.88
2023-04-15T05:39:56.975Z,73.78
2023-04-15T05:42:23.679Z,73.87
2023-04-15T05:44:50.553Z,73.70
2023-04-15T05:47:17.440Z,73.53
2023-04-15T05:49:44.256Z,73.74
2023-04-15T05:52:11.132Z,73.81
2023-04-15T05:54:38.505Z,73.75
2023-04-15T05:57:05.650Z,73.88
2023-04-15T05:59:33.061Z,73.84
2023-04-15T06:01:59.783Z,73.89
2023-04-15T06:04:26.699Z,73.78
2023-04-15T06:06:53.672Z,73.68
2023-04-15T06:09:20.439Z,73.69
2023-04-15T06:11:47.558Z,73.53
2023-04-15T06:14:14.263Z,73.88
2023-04-15T06:16:41.169Z,74.09
2023-04-15T06:19:08.062Z,73.66
2023-04-15T06:21:34.836Z,73.52
2023-04-15T06:24:01.740Z,72.98
2023-04-15T06:26:28.911Z,72.93
2023-04-15T06:28:55.953Z,73.11
2023-04-15T06:31:23.073Z,72.98
2023-04-15T06:33:49.868Z,72.65
2023-04-15T06:36:16.594Z,71.40
2023-04-15T06:38:43.280Z,71.35
2023-04-15T06:41:09.973Z,71.13
2023-04-15T06:43:37.244Z,71.12
2023-04-15T06:46:04.608Z,70.42
2023-04-15T06:48:31.611Z,70.85
2023-04-15T06:50:59.029Z,70.41
2023-04-15T06:53:28.150Z,70.57
2023-04-15T06:55:54.990Z,70.76
2023-04-15T06:58:22.119Z,70.57
2023-04-15T07:00:49.369Z,70.52
2023-04-15T07:03:16.344Z,70.46
2023-04-15T07:05:43.606Z,70.26
2023-04-15T07:08:10.338Z,70.01
2023-04-15T07:10:37.414Z,69.67
2023-04-15T07:13:04.543Z,69.82
2023-04-15T07:15:31.481Z,70.02
2023-04-15T07:17:58.336Z,69.61
2023-04-15T07:20:25.195Z,69.26
2023-04-15T07:22:51.953Z,68.59
2023-04-15T07:25:19.190Z,68.60
2023-04-15T07:27:46.059Z,67.81
2023-04-15T07:30:21.922Z,68.19
2023-04-15T07:32:49.171Z,67.81
2023-04-15T07:35:15.947Z,66.84
2023-04-15T07:37:43.632Z,66.65
2023-04-15T07:40:10.889Z,65.60
2023-04-15T07:42:39.382Z,65.13
2023-04-15T07:45:08.004Z,64.88
2023-04-15T07:47:34.805Z,64.70
2023-04-15T07:50:02.443Z,63.60
2023-04-15T07:52:29.245Z,64.23
2023-04-15T07:54:55.993Z,63.18
2023-04-15T07:57:22.803Z,63.65
2023-04-15T07:59:50.266Z,64.46
2023-04-15T08:02:17.186Z,64.79
2023-04-15T08:04:44.309Z,63.88
2023-04-15T08:07:11.264Z,63.15
2023-04-15T08:09:38.024Z,63.25
2023-04-15T08:12:05.011Z,61.21
2023-04-15T08:14:32.036Z,60.64
2023-04-15T08:16:58.775Z,61.06
2023-04-15T08:19:26.009Z,60.56
2023-04-15T08:21:52.767Z,60.99
2023-04-15T08:24:20.071Z,60.83
2023-04-15T08:26:47.373Z,60.88
2023-04-15T08:29:14.193Z,61.52
2023-04-15T08:31:41.238Z,61.86
2023-04-15T08:34:08.043Z,62.32
2023-04-15T08:36:35.048Z,62.51
2023-04-15T08:39:02.387Z,60.14
2023-04-15T08:41:36.003Z,57.96
2023-04-15T08:44:05.177Z,57.91
2023-04-15T08:46:35.024Z,56.40
2023-04-15T08:49:05.332Z,54.84
2023-04-15T08:51:32.418Z,56.67
2023-04-15T08:53:59.977Z,54.35
2023-04-15T08:56:29.634Z,54.81
2023-04-15T08:58:56.942Z,53.12
2023-04-15T09:01:23.760Z,54.24
2023-04-15T09:03:51.017Z,52.59
2023-04-15T09:06:18.313Z,54.14
2023-04-15T09:08:45.173Z,53.61
2023-04-15T09:11:12.450Z,53.68
2023-04-15T09:13:39.558Z,53.08
2023-04-15T09:16:06.959Z,53.80
2023-04-15T09:18:35.763Z,53.90
2023-04-15T09:21:11.523Z,53.72
2023-04-15T09:23:52.065Z,53.82
2023-04-15T09:26:18.986Z,53.48
2023-04-15T09:28:45.822Z,53.46
2023-04-15T09:31:12.974Z,54.45
2023-04-15T09:33:56.567Z,54.09
2023-04-15T09:36:25.256Z,54.11
2023-04-15T09:38:59.554Z,55.12
2023-04-15T09:41:28.790Z,53.54
2023-04-15T09:43:55.640Z,52.90
2023-04-15T09:46:41.369Z,52.87
2023-04-15T09:49:09.339Z,51.01
2023-04-15T09:51:36.696Z,51.83
2023-04-15T09:54:03.741Z,50.11
2023-04-15T09:56:38.986Z,51.44
2023-04-15T09:59:06.185Z,52.65
2023-04-15T10:01:36.285Z,52.27
2023-04-15T10:04:07.093Z,53.03
2023-04-15T10:06:34.097Z,51.05
2023-04-15T10:09:01.376Z,51.53
2023-04-15T10:11:32.058Z,50.38
2023-04-15T10:13:58.904Z,51.95
2023-04-15T10:16:28.651Z,47.93
2023-04-15T10:18:56.779Z,47.07
2023-04-15T10:21:23.863Z,48.21
2023-04-15T10:23:51.555Z,48.07
2023-04-15T10:26:18.383Z,47.43
2023-04-15T10:28:47.372Z,47.29
2023-04-15T10:31:15.267Z,47.11
2023-04-15T10:33:43.165Z,47.09
2023-04-15T10:36:10.596Z,46.83
2023-04-15T10:38:42.662Z,46.50
2023-04-15T10:41:17.797Z,44.88
2023-04-15T10:43:53.018Z,45.37
2023-04-15T10:46:22.253Z,43.96
2023-04-15T10:48:53.181Z,44.66
2023-04-15T10:51:30.822Z,44.50
2023-04-15T10:54:01.623Z,44.76
2023-04-15T10:56:31.962Z,45.96
2023-04-15T10:59:02.049Z,44.61
2023-04-15T11:01:53.354Z,43.59
2023-04-15T11:04:58.815Z,42.29
2023-04-15T11:07:44.458Z,43.87
2023-04-15T11:10:13.856Z,44.13
2023-04-15T11:12:42.172Z,42.58
2023-04-15T11:15:42.452Z,42.21
2023-04-15T11:18:10.263Z,42.67
2023-04-15T11:20:38.028Z,42.50
2023-04-15T11:23:13.874Z,41.83
2023-04-15T11:25:43.556Z,42.71
2023-04-15T11:28:11.657Z,42.29
2023-04-15T11:30:39.524Z,42.68
2023-04-15T11:33:08.829Z,44.22
2023-04-15T11:35:36.624Z,45.25
2023-04-15T11:38:04.855Z,44.86
2023-04-15T11:40:33.622Z,45.07
2023-04-15T11:43:06.903Z,45.66
2023-04-15T11:45:33.922Z,44.48
2023-04-15T11:48:07.245Z,43.11
2023-04-15T11:50:35.402Z,44.59
2023-04-15T11:53:08.398Z,44.88
2023-04-15T11:55:50.932Z,44.01
2023-04-15T11:58:22.811Z,44.91
2023-04-15T12:01:00.354Z,45.36
2023-04-15T12:03:31.261Z,47.24
2023-04-15T12:06:05.504Z,51.62
2023-04-15T12:08:51.009Z,53.12
2023-04-15T12:11:17.887Z,55.42
2023-04-15T12:13:47.072Z,52.82
2023-04-15T12:16:13.951Z,52.76
2023-04-15T12:18:40.674Z,53.39
2023-04-15T12:21:11.127Z,51.98
2023-04-15T12:23:39.297Z,51.66
2023-04-15T12:26:07.672Z,51.66
2023-04-15T12:28:36.849Z,55.87
2023-04-15T12:31:10.783Z,56.82
2023-04-15T12:33:38.031Z,58.25
2023-04-15T12:36:08.474Z,55.97
2023-04-15T12:38:35.244Z,57.95
2023-04-15T12:41:02.003Z,60.34
2023-04-15T12:43:29.041Z,60.58
2023-04-15T12:45:55.906Z,59.19
2023-04-15T12:48:22.641Z,57.26
2023-04-15T12:50:49.425Z,56.75
2023-04-15T12:53:16.197Z,57.02
2023-04-15T12:55:42.935Z,58.19
2023-04-15T12:58:11.556Z,55.38
2023-04-15T13:00:38.956Z,56.96
2023-04-15T13:03:07.400Z,53.23
2023-04-15T13:05:34.298Z,49.54
2023-04-15T13:08:01.082Z,50.40
2023-04-15T13:10:31.811Z,50.01
2023-04-15T13:12:58.823Z,49.83
2023-04-15T13:15:26.104Z,49.99
2023-04-15T13:17:52.931Z,50.85
2023-04-15T13:20:20.122Z,49.19
2023-04-15T13:22:47.038Z,50.45
2023-04-15T13:25:14.099Z,50.09
2023-04-15T13:27:40.785Z,50.20
2023-04-15T13:30:08.648Z,50.40
2023-04-15T13:32:35.844Z,48.01
2023-04-15T13:35:02.640Z,46.95
2023-04-15T13:37:30.366Z,47.57
2023-04-15T13:39:57.396Z,43.91
2023-04-15T13:42:24.836Z,45.59
2023-04-15T13:44:51.847Z,45.06
2023-04-15T13:47:21.616Z,44.27
2023-04-15T13:49:48.392Z,44.69
2023-04-15T13:52:15.061Z,44.04
2023-04-15T13:54:41.821Z,47.82
2023-04-15T13:57:08.581Z,44.30
2023-04-15T13:59:35.656Z,43.87
2023-04-15T14:02:02.960Z,42.81
2023-04-15T14:04:31.631Z,42.23
2023-04-15T14:06:58.812Z,42.41
2023-04-15T14:09:26.478Z,43.23
2023-04-15T14:11:54.625Z,43.57
2023-04-15T14:14:21.406Z,42.80
2023-04-15T14:16:48.468Z,44.74
2023-04-15T14:19:15.402Z,44.30
2023-04-15T14:21:42.246Z,43.87
2023-04-15T14:24:08.978Z,44.97
2023-04-15T14:26:35.762Z,44.74
2023-04-15T14:29:02.731Z,45.21
2023-04-15T14:31:29.594Z,45.34
2023-04-15T14:33:56.279Z,46.44
2023-04-15T14:36:23.163Z,46.40
2023-04-15T14:38:50.155Z,47.55
2023-04-15T14:41:17.390Z,47.19
2023-04-15T14:43:44.115Z,45.72
2023-04-15T14:46:11.468Z,47.57
2023-04-15T14:48:38.394Z,47.14
2023-04-15T14:51:05.253Z,48.58
2023-04-15T14:53:32.126Z,46.61
2023-04-15T14:55:58.834Z,46.99
2023-04-15T14:58:25.593Z,47.68
2023-04-15T15:00:52.344Z,46.46
2023-04-15T15:03:19.235Z,47.63
2023-04-15T15:05:46.963Z,47.96
2023-04-15T15:08:14.006Z,47.38
2023-04-15T15:10:49.562Z,47.85
2023-04-15T15:13:17.174Z,49.57
2023-04-15T15:15:44.231Z,47.92
2023-04-15T15:18:11.527Z,47.69
2023-04-15T15:20:38.400Z,48.49
2023-04-15T15:23:05.129Z,50.59
2023-04-15T15:25:32.173Z,50.36
2023-04-15T15:27:58.910Z,51.87
2023-04-15T15:30:25.661Z,52.79
2023-04-15T15:32:52.409Z,54.72
2023-04-15T15:35:19.169Z,54.23
2023-04-15T15:37:46.214Z,57.52
2023-04-15T15:40:13.128Z,56.52
2023-04-15T15:42:39.826Z,57.78
2023-04-15T15:45:07.246Z,60.85
2023-04-15T15:47:34.055Z,59.54
2023-04-15T15:50:03.041Z,60.30
2023-04-15T15:52:30.975Z,60.43
2023-04-15T15:54:57.681Z,60.62
2023-04-15T15:57:24.373Z,62.46
2023-04-15T16:00:04.882Z,62.88
2023-04-15T16:03:04.359Z,65.02
2023-04-15T16:05:24.161Z,66.81
2023-04-15T16:07:51.164Z,67.82
2023-04-15T16:10:18.220Z,69.65
2023-04-15T16:12:44.946Z,70.54
2023-04-15T16:15:12.761Z,71.93
2023-04-15T16:17:39.722Z,72.95
2023-04-15T16:20:07.229Z,73.57
2023-04-15T16:22:35.050Z,74.01
2023-04-15T16:25:02.410Z,74.54
2023-04-15T16:27:29.430Z,75.09
2023-04-15T16:29:56.770Z,74.96
2023-04-15T16:32:23.589Z,75.56
2023-04-15T16:34:50.497Z,75.53
2023-04-15T16:37:17.171Z,75.65
2023-04-15T16:39:43.872Z,76.17
2023-04-15T16:42:10.736Z,75.77
2023-04-15T16:44:37.582Z,75.90
2023-04-15T16:47:04.264Z,75.96
2023-04-15T16:49:31.004Z,76.57
2023-04-15T16:51:57.779Z,76.59
2023-04-15T16:54:24.470Z,76.78
2023-04-15T16:56:51.575Z,76.71
2023-04-15T16:59:18.323Z,77.05
2023-04-15T17:01:45.664Z,77.41
2023-04-15T17:04:12.681Z,77.67
2023-04-15T17:06:39.944Z,77.97
2023-04-15T17:09:06.901Z,77.76
2023-04-15T17:11:35.298Z,78.09
2023-04-15T17:14:03.016Z,77.90
2023-04-15T17:16:29.705Z,78.35
2023-04-15T17:18:56.609Z,78.07
2023-04-15T17:21:23.298Z,78.26
2023-04-15T17:23:52.183Z,78.31
2023-04-15T17:26:19.264Z,78.02
2023-04-15T17:28:46.211Z,78.07
2023-04-15T17:31:13.011Z,78.10
2023-04-15T17:34:01.269Z,78.07
2023-04-15T17:36:27.193Z,77.65
2023-04-15T17:38:56.348Z,77.66
2023-04-15T17:41:23.358Z,77.35
2023-04-15T17:43:50.520Z,77.81
2023-04-15T17:46:17.334Z,77.44
2023-04-15T17:48:44.080Z,78.14
2023-04-15T17:51:10.937Z,77.81
2023-04-15T17:53:37.610Z,77.57
2023-04-15T17:56:04.477Z,77.60
2023-04-15T17:58:31.519Z,78.31
2023-04-15T18:00:58.380Z,78.08
2023-04-15T18:03:25.240Z,78.38
2023-04-15T18:05:52.111Z,78.58
2023-04-15T18:08:18.873Z,78.25
2023-04-15T18:10:45.621Z,78.23
2023-04-15T18:13:12.309Z,78.09
2023-04-15T18:15:39.014Z,78.13
2023-04-15T18:18:05.769Z,78.24
2023-04-15T18:20:33.651Z,77.86
2023-04-15T18:23:00.416Z,78.07
2023-04-15T18:25:27.151Z,78.48
2023-04-15T18:27:55.016Z,78.43
2023-04-15T18:30:21.779Z,78.38
2023-04-15T18:32:48.633Z,78.59
2023-04-15T18:35:17.270Z,78.68
2023-04-15T18:37:44.114Z,78.51
2023-04-15T18:40:11.267Z,78.53
2023-04-15T18:42:38.004Z,78.85
2023-04-15T18:45:05.667Z,79.10
2023-04-15T18:47:32.639Z,79.24
2023-04-15T18:49:59.803Z,79.04
2023-04-15T18:52:26.757Z,78.92
2023-04-15T18:54:53.417Z,79.41
2023-04-15T18:57:23.613Z,79.45
2023-04-15T18:59:58.095Z,79.86
2023-04-15T19:02:25.018Z,79.83
2023-04-15T19:04:51.906Z,79.71
2023-04-15T19:07:18.867Z,79.61
2023-04-15T19:09:45.668Z,79.89
2023-04-15T19:12:12.380Z,80.43
2023-04-15T19:14:39.202Z,80.22
2023-04-15T19:17:05.968Z,80.76
2023-04-15T19:19:32.641Z,80.35
2023-04-15T19:22:01.859Z,80.94
2023-04-15T19:24:30.542Z,81.48
2023-04-15T19:26:59.423Z,81.17
2023-04-15T19:29:26.188Z,80.91
2023-04-15T19:31:53.071Z,81.29
2023-04-15T19:34:19.783Z,81.30
2023-04-15T19:36:46.601Z,81.83
2023-04-15T19:39:13.737Z,81.71
2023-04-15T19:41:40.485Z,81.34
2023-04-15T19:44:07.261Z,81.02
2023-04-15T19:46:34.222Z,80.98
2023-04-15T19:49:01.790Z,81.02
2023-04-15T19:51:28.922Z,81.17
2023-04-15T19:53:57.015Z,81.46
2023-04-15T19:56:24.275Z,81.27
2023-04-15T19:58:53.296Z,81.41
2023-04-15T20:01:20.508Z,81.20
2023-04-15T20:03:47.605Z,81.30
2023-04-15T20:06:15.668Z,81.16
2023-04-15T20:08:42.456Z,81.03
2023-04-15T20:11:09.932Z,81.18
2023-04-15T20:13:36.784Z,81.06
2023-04-15T20:16:03.679Z,81.54
2023-04-15T20:18:30.965Z,82.13
2023-04-15T20:20:57.735Z,81.78
2023-04-15T20:23:24.528Z,81.47
2023-04-15T20:25:52.052Z,82.01
2023-04-15T20:28:19.472Z,81.97
2023-04-15T20:30:47.284Z,82.42
2023-04-15T20:33:14.441Z,82.12
2023-04-15T20:35:41.256Z,82.11
2023-04-15T20:38:07.948Z,82.06
2023-04-15T20:40:34.739Z,82.18
2023-04-15T20:43:01.672Z,82.13
2023-04-15T20:45:28.382Z,82.58
2023-04-15T20:47:56.303Z,82.22
2023-04-15T20:50:23.090Z,81.88
2023-04-15T20:52:49.806Z,81.97
2023-04-15T20:55:17.339Z,81.95
2023-04-15T20:57:44.045Z,82.16
2023-04-15T21:00:11.303Z,82.09
2023-04-15T21:02:38.907Z,82.28
2023-04-15T21:05:06.128Z,81.88
2023-04-15T21:07:32.954Z,82.49
2023-04-15T21:09:59.637Z,81.94
2023-04-15T21:12:26.341Z,81.77
2023-04-15T21:14:53.327Z,81.77
2023-04-15T21:17:20.109Z,81.91
2023-04-15T21:19:46.790Z,81.45
2023-04-15T21:22:13.544Z,81.48
2023-04-15T21:24:40.289Z,82.26
2023-04-15T21:27:07.000Z,82.13
2023-04-15T21:29:33.776Z,81.97
2023-04-15T21:32:00.709Z,81.92
2023-04-15T21:34:27.494Z,81.89
2023-04-15T21:36:54.336Z,81.84
2023-04-15T21:39:21.031Z,82.23
2023-04-15T21:41:47.767Z,81.97
2023-04-15T21:44:15.087Z,82.35
2023-04-15T21:46:42.192Z,82.18
2023-04-15T21:49:12.864Z,81.92
2023-04-15T21:51:39.554Z,82.93
2023-04-15T21:54:06.239Z,83.13
2023-04-15T21:56:33.371Z,82.75
2023-04-15T21:59:00.070Z,82.65
2023-04-15T22:01:27.384Z,82.59
2023-04-15T22:03:54.387Z,82.41
2023-04-15T22:06:21.592Z,82.16
2023-04-15T22:09:09.246Z,82.83
2023-04-15T22:11:36.549Z,82.33
2023-04-15T22:14:03.282Z,82.64
2023-04-15T22:16:30.044Z,82.24
2023-04-15T22:18:56.820Z,82.58
2023-04-15T22:21:24.009Z,82.84
2023-04-15T22:23:51.425Z,83.07
2023-04-15T22:26:18.164Z,83.28
2023-04-15T22:28:45.264Z,82.92
2023-04-15T22:31:12.043Z,83.20
2023-04-15T22:33:39.145Z,83.02
2023-04-15T22:36:06.476Z,82.93
2023-04-15T22:38:33.369Z,83.60
2023-04-15T22:41:00.501Z,83.62
2023-04-15T22:43:27.874Z,83.50
2023-04-15T22:45:55.209Z,83.26
2023-04-15T22:48:22.467Z,82.99
2023-04-15T22:50:49.728Z,82.93
2023-04-15T22:53:17.581Z,83.19
2023-04-15T22:55:48.591Z,82.96
2023-04-15T22:58:16.433Z,83.19
2023-04-15T23:00:43.257Z,83.55
2023-04-15T23:03:10.506Z,83.49
2023-04-15T23:05:37.572Z,83.24
2023-04-15T23:08:04.258Z,83.05
2023-04-15T23:10:31.130Z,83.21
2023-04-15T23:12:57.898Z,83.21
2023-04-15T23:15:25.017Z,83.11
2023-04-15T23:17:51.831Z,83.21
2023-04-15T23:20:18.595Z,83.47
2023-04-15T23:22:45.586Z,83.40
2023-04-15T23:25:12.497Z,84.24
2023-04-15T23:27:39.283Z,83.76
2023-04-15T23:30:07.331Z,83.69
2023-04-15T23:32:34.085Z,83.22
2023-04-15T23:35:00.866Z,83.33
2023-04-15T23:37:27.858Z,83.33
2023-04-15T23:39:55.895Z,83.69
2023-04-15T23:42:23.385Z,84.06
2023-04-15T23:44:50.158Z,83.90
2023-04-15T23:47:16.848Z,84.04
2023-04-15T23:49:43.989Z,83.80
2023-04-15T23:52:10.747Z,84.57
2023-04-15T23:54:37.433Z,84.37
2023-04-15T23:57:04.217Z,84.07
2023-04-15T23:59:30.972Z,83.71
